Time;durP1;ratioP1;P1;durP2;ratioP2;P2;SDS_P1;SDS_P2;PMS_P1;PMS_P2;Temp;Humidity;BMP_temperature;BMP_pressure;BME280_temperature;BME280_humidity;BME280_pressure;Samples;Min_cycle;Max_cycle;Signal;HPM_P1;HPM_P2
2023/12/13 00:01:43;;;;;;;77.97;53.10;;;333.20;2329.60;;;;;;5071646;28;20068;-63
2023/12/13 00:04:09;;;;;;;165.27;111.55;;;333.30;2329.60;;;;;;5071521;28;20063;-63
2023/12/13 00:06:35;;;;;;;58.05;40.05;;;333.20;2329.60;;;;;;5085165;28;20051;-62
2023/12/13 00:09:03;;;;;;;18.25;11.85;;;333.30;2329.60;;;;;;5085305;28;20020;-63
2023/12/13 00:11:29;;;;;;;17.48;11.90;;;333.40;2329.60;;;;;;5065445;28;20086;-62
2023/12/13 00:13:55;;;;;;;28.48;17.27;;;333.50;2329.60;;;;;;5077852;28;20017;-63
2023/12/13 00:16:21;;;;;;;29.83;18.50;;;333.50;2329.60;;;;;;5092344;28;20111;-62
2023/12/13 00:18:47;;;;;;;41.13;26.77;;;333.60;2329.60;;;;;;5078055;28;20028;-62
2023/12/13 00:21:15;;;;;;;216.32;151.10;;;333.50;2329.60;;;;;;5079157;28;20077;-63
2023/12/13 00:23:48;;;;;;;20.00;16.17;;;333.40;2329.60;;;;;;5077149;28;20036;-63
2023/12/13 00:26:17;;;;;;;26.23;17.40;;;333.40;2329.60;;;;;;5071477;28;20076;-61
2023/12/13 00:28:44;;;;;;;56.13;38.78;;;333.40;2329.60;;;;;;5084437;28;20260;-62
2023/12/13 00:31:10;;;;;;;58.38;39.75;;;333.30;2329.60;;;;;;5079252;28;20059;-62
2023/12/13 00:33:37;;;;;;;61.75;39.50;;;333.30;2329.60;;;;;;5084784;28;20021;-64
2023/12/13 00:36:03;;;;;;;52.58;33.00;;;333.40;2329.60;;;;;;5082036;28;20077;-63
2023/12/13 00:38:29;;;;;;;40.65;26.55;;;333.30;2329.60;;;;;;5076961;28;20020;-63
2023/12/13 00:40:55;;;;;;;32.15;20.73;;;333.10;2329.60;;;;;;5078520;28;20035;-64
2023/12/13 00:43:21;;;;;;;52.13;35.80;;;333.30;2329.60;;;;;;5076941;28;20112;-63
2023/12/13 00:45:47;;;;;;;59.88;37.60;;;333.10;2329.60;;;;;;5070904;28;20162;-61
2023/12/13 00:48:13;;;;;;;37.67;23.20;;;333.10;2329.60;;;;;;5085403;28;20017;-61
2023/12/13 00:50:39;;;;;;;79.70;51.97;;;333.20;2329.60;;;;;;5083256;28;20036;-62
2023/12/13 00:53:05;;;;;;;129.23;73.63;;;333.30;2329.60;;;;;;5071321;28;20078;-63
2023/12/13 00:55:30;;;;;;;153.90;90.80;;;333.50;2329.60;;;;;;5091674;28;20069;-62
2023/12/13 00:57:57;;;;;;;8.40;5.57;;;333.70;2329.60;;;;;;5077315;28;20433;-63
2023/12/13 01:00:23;;;;;;;65.65;37.22;;;358.50;2329.60;;;;;;5082440;28;20027;-63
2023/12/13 01:02:49;;;;;;;19.52;12.20;;;358.60;2329.60;;;;;;5084608;28;20048;-62
2023/12/13 01:05:15;;;;;;;37.05;24.23;;;358.70;2329.60;;;;;;5072020;28;20389;-63
2023/12/13 01:07:40;;;;;;;12.48;7.40;;;358.70;2329.60;;;;;;5084048;28;20456;-63
2023/12/13 01:10:07;;;;;;;40.55;26.05;;;358.80;2329.60;;;;;;5078175;28;20030;-63
2023/12/13 01:12:33;;;;;;;30.75;20.48;;;358.80;2329.60;;;;;;5076057;28;20016;-62
2023/12/13 01:14:58;;;;;;;49.00;34.38;;;358.80;2329.60;;;;;;5070223;28;20348;-63
2023/12/13 01:17:24;;;;;;;46.30;27.20;;;358.80;2329.60;;;;;;5071532;28;20028;-63
2023/12/13 01:19:52;;;;;;;17.15;12.82;;;358.80;2329.60;;;;;;5082535;28;20348;-63
2023/12/13 01:22:20;;;;;;;16.88;12.23;;;358.80;2329.60;;;;;;5070071;28;20027;-63
2023/12/13 01:24:46;;;;;;;25.73;16.17;;;358.80;2329.60;;;;;;5078433;28;20427;-62
2023/12/13 01:27:12;;;;;;;8.15;6.13;;;358.80;2329.60;;;;;;5076480;28;20024;-63
2023/12/13 01:29:38;;;;;;;6.00;4.68;;;358.90;2329.60;;;;;;5090438;28;20024;-63
2023/12/13 01:32:04;;;;;;;5.95;3.20;;;358.90;2329.60;;;;;;5088712;28;20032;-63
2023/12/13 01:34:30;;;;;;;4.90;3.35;;;358.90;2329.60;;;;;;5077862;28;20077;-63
2023/12/13 01:36:56;;;;;;;10.55;7.60;;;358.90;2329.60;;;;;;5071945;28;20029;-64
2023/12/13 01:39:22;;;;;;;7.25;4.75;;;358.90;2329.60;;;;;;5090252;28;20477;-63
2023/12/13 01:41:48;;;;;;;6.57;4.93;;;358.90;2329.60;;;;;;5089887;28;20103;-63
2023/12/13 01:44:13;;;;;;;8.20;5.85;;;358.90;2329.60;;;;;;5089978;28;20385;-63
2023/12/13 01:46:40;;;;;;;8.38;5.22;;;358.90;2329.60;;;;;;5089723;28;20035;-63
2023/12/13 01:49:07;;;;;;;8.63;6.22;;;358.90;2329.60;;;;;;5080902;28;20536;-63
2023/12/13 01:51:37;;;;;;;10.13;4.70;;;358.90;2329.60;;;;;;5069695;28;20493;-63
2023/12/13 01:54:06;;;;;;;6.00;4.40;;;358.80;2329.60;;;;;;5079189;28;20077;-63
2023/12/13 01:56:32;;;;;;;6.18;3.10;;;358.90;2329.60;;;;;;5090033;28;20098;-63
2023/12/13 01:58:58;;;;;;;6.70;6.00;;;359.00;2329.60;;;;;;5089863;28;20028;-63
2023/12/13 02:01:24;;;;;;;10.60;7.05;;;359.00;2329.60;;;;;;5072526;28;20042;-63
2023/12/13 02:03:49;;;;;;;11.98;8.35;;;359.00;2329.60;;;;;;5079789;28;20044;-63
2023/12/13 02:06:15;;;;;;;18.48;12.30;;;358.90;2329.60;;;;;;5086368;28;20027;-64
2023/12/13 02:08:41;;;;;;;15.82;10.98;;;358.80;2329.60;;;;;;5060710;28;20452;-63
2023/12/13 02:11:07;;;;;;;17.88;11.18;;;358.70;2329.60;;;;;;5066634;28;20021;-63
2023/12/13 02:13:33;;;;;;;27.38;16.10;;;358.50;2329.60;;;;;;5079879;28;20020;-63
2023/12/13 02:15:59;;;;;;;21.58;15.43;;;358.60;2329.60;;;;;;5089229;28;20023;-64
2023/12/13 02:18:26;;;;;;;27.13;23.33;;;358.60;2329.60;;;;;;5079428;28;20020;-63
2023/12/13 02:20:52;;;;;;;30.02;20.35;;;358.70;2329.60;;;;;;5073272;28;20020;-62
2023/12/13 02:23:18;;;;;;;24.00;17.77;;;358.60;2329.60;;;;;;5078903;28;20029;-63
2023/12/13 02:25:59;;;;;;;20.35;14.50;;;358.60;2329.60;;;;;;5068958;28;20036;-63
2023/12/13 02:28:26;;;;;;;17.00;11.93;;;358.70;2329.60;;;;;;5081622;28;20024;-64
2023/12/13 02:30:56;;;;;;;18.63;11.68;;;358.80;2329.60;;;;;;5070673;28;20029;-62
2023/12/13 02:33:31;;;;;;;18.33;13.85;;;359.00;2329.60;;;;;;5069202;28;20028;-63
2023/12/13 02:35:59;;;;;;;18.15;10.80;;;358.90;2329.60;;;;;;5082288;28;20036;-63
2023/12/13 02:38:25;;;;;;;25.00;16.52;;;358.80;2329.60;;;;;;5082930;28;20482;-63
2023/12/13 02:40:51;;;;;;;19.92;13.32;;;358.80;2329.60;;;;;;5069747;28;20453;-63
2023/12/13 02:43:16;;;;;;;19.08;11.45;;;358.70;2329.60;;;;;;5082508;28;20020;-62
2023/12/13 02:45:42;;;;;;;16.95;10.85;;;358.70;2329.60;;;;;;5071466;28;20094;-63
2023/12/13 02:48:08;;;;;;;23.20;15.35;;;358.70;2329.60;;;;;;5059907;28;20056;-63
2023/12/13 02:50:38;;;;;;;25.27;18.75;;;358.70;2329.60;;;;;;5060113;28;20028;-62
2023/12/13 02:53:07;;;;;;;16.70;10.77;;;358.70;2329.60;;;;;;5073117;28;20028;-62
2023/12/13 02:55:33;;;;;;;18.88;11.75;;;358.90;2329.60;;;;;;5073131;28;20048;-63
2023/12/13 02:58:03;;;;;;;14.55;8.95;;;359.10;2329.60;;;;;;5087412;28;20067;-63
2023/12/13 03:00:29;;;;;;;22.45;14.00;;;359.10;2329.60;;;;;;5093525;28;20080;-63
2023/12/13 03:02:56;;;;;;;98.53;64.45;;;359.10;2329.60;;;;;;5091376;28;20126;-64
2023/12/13 03:05:22;;;;;;;79.63;59.75;;;359.10;2329.60;;;;;;5081336;28;20036;-63
2023/12/13 03:07:48;;;;;;;72.82;45.00;;;359.10;2329.60;;;;;;5079227;28;20359;-63
2023/12/13 03:10:14;;;;;;;40.00;24.60;;;359.10;2329.60;;;;;;5075299;28;20033;-62
2023/12/13 03:12:40;;;;;;;5.90;3.92;;;359.10;2329.60;;;;;;5056274;28;20017;-62
2023/12/13 03:15:06;;;;;;;9.80;5.65;;;359.20;2329.60;;;;;;5092870;28;20024;-63
2023/12/13 03:17:32;;;;;;;10.60;7.38;;;359.30;2329.60;;;;;;5077221;28;20074;-63
2023/12/13 03:19:57;;;;;;;17.80;12.65;;;359.20;2329.60;;;;;;5072653;28;20109;-63
2023/12/13 03:22:24;;;;;;;16.00;10.80;;;359.10;2329.60;;;;;;5074533;28;20442;-63
2023/12/13 03:24:51;;;;;;;14.75;10.30;;;359.00;2329.60;;;;;;5092439;28;20044;-63
2023/12/13 03:27:17;;;;;;;12.60;7.20;;;359.00;2329.60;;;;;;5092201;28;20050;-63
2023/12/13 03:29:43;;;;;;;12.68;9.57;;;359.00;2329.60;;;;;;5083704;28;20459;-63
2023/12/13 03:32:09;;;;;;;9.50;5.60;;;359.00;2329.60;;;;;;5071931;28;20028;-63
2023/12/13 03:34:35;;;;;;;7.95;6.10;;;359.10;2329.60;;;;;;5072840;28;20070;-62
2023/12/13 03:37:02;;;;;;;7.82;3.78;;;359.10;2329.60;;;;;;5074731;28;20455;-63
2023/12/13 03:39:27;;;;;;;10.18;7.22;;;359.20;2329.60;;;;;;5092394;28;20028;-63
2023/12/13 03:41:53;;;;;;;8.98;5.82;;;359.30;2329.60;;;;;;5076696;28;20035;-62
2023/12/13 03:44:19;;;;;;;4.80;3.22;;;359.10;2329.60;;;;;;5072081;28;20416;-62
2023/12/13 03:46:45;;;;;;;4.78;2.63;;;359.20;2329.60;;;;;;5088046;28;20496;-62
2023/12/13 03:49:10;;;;;;;8.35;4.88;;;359.30;2329.60;;;;;;5069636;28;20626;-62
2023/12/13 03:51:36;;;;;;;4.68;3.00;;;359.30;2329.60;;;;;;5067608;28;20085;-62
2023/12/13 03:54:02;;;;;;;6.95;5.28;;;384.10;2329.60;;;;;;5072185;28;20051;-63
2023/12/13 03:56:30;;;;;;;5.60;3.53;;;384.10;2329.60;;;;;;5087129;28;20024;-64
2023/12/13 03:58:56;;;;;;;5.82;3.33;;;384.10;2329.60;;;;;;5092297;28;20020;-63
2023/12/13 04:01:22;;;;;;;4.45;3.15;;;359.30;2329.60;;;;;;5075843;28;20424;-63
2023/12/13 04:03:48;;;;;;;4.68;3.10;;;359.30;2329.60;;;;;;5072063;28;20041;-63
2023/12/13 04:06:13;;;;;;;5.20;3.15;;;359.10;2329.60;;;;;;5084968;28;20067;-63
2023/12/13 04:08:39;;;;;;;7.82;3.35;;;359.10;2329.60;;;;;;5071833;28;20032;-62
2023/12/13 04:11:06;;;;;;;4.43;2.42;;;359.10;2329.60;;;;;;5087368;28;20077;-63
2023/12/13 04:13:32;;;;;;;2.88;1.63;;;359.00;2329.60;;;;;;5082995;28;20117;-63
2023/12/13 04:15:57;;;;;;;2.72;1.50;;;359.10;2329.60;;;;;;5073880;28;20494;-62
2023/12/13 04:18:23;;;;;;;2.33;1.40;;;359.20;2329.60;;;;;;5082683;28;20103;-63
2023/12/13 04:20:49;;;;;;;3.35;1.67;;;359.30;2329.60;;;;;;5069284;28;20115;-63
2023/12/13 04:23:14;;;;;;;3.00;1.60;;;359.30;2329.60;;;;;;5075686;28;20017;-63
2023/12/13 04:25:40;;;;;;;2.22;1.33;;;359.30;2329.60;;;;;;5071305;28;20039;-63
2023/12/13 04:28:07;;;;;;;3.65;2.30;;;359.30;2329.60;;;;;;5080022;28;20028;-63
2023/12/13 04:30:33;;;;;;;4.53;2.78;;;384.00;2329.60;;;;;;5091446;28;20040;-63
2023/12/13 04:32:58;;;;;;;4.80;3.08;;;384.00;2329.60;;;;;;5082177;28;20029;-62
2023/12/13 04:35:24;;;;;;;4.85;2.60;;;384.10;2329.60;;;;;;5064905;28;20457;-62
2023/12/13 04:37:50;;;;;;;3.88;3.05;;;384.10;2329.60;;;;;;5065188;28;20020;-63
2023/12/13 04:40:15;;;;;;;2.80;1.80;;;384.10;2329.60;;;;;;5085034;28;20020;-63
2023/12/13 04:42:41;;;;;;;4.50;1.50;;;384.20;2329.60;;;;;;5071678;28;20369;-64
2023/12/13 04:45:08;;;;;;;5.45;2.25;;;384.20;2329.60;;;;;;5084499;28;20086;-62
2023/12/13 04:47:34;;;;;;;2.85;1.65;;;384.20;2329.60;;;;;;5080243;28;20024;-63
2023/12/13 04:50:00;;;;;;;5.43;3.70;;;384.20;2329.60;;;;;;5077534;28;20024;-62
2023/12/13 04:52:25;;;;;;;5.60;2.05;;;384.40;2329.60;;;;;;5082178;28;20017;-61
2023/12/13 04:54:51;;;;;;;5.05;1.77;;;384.30;2329.60;;;;;;5073470;28;20036;-62
2023/12/13 04:57:17;;;;;;;2.55;1.30;;;384.30;2329.60;;;;;;5081668;28;20382;-62
2023/12/13 04:59:42;;;;;;;3.05;1.63;;;384.30;2329.60;;;;;;5070892;28;20025;-63
2023/12/13 05:02:08;;;;;;;3.53;1.77;;;384.40;2329.60;;;;;;5070636;28;20376;-61
2023/12/13 05:04:34;;;;;;;3.75;1.77;;;384.40;2329.60;;;;;;5076502;28;20045;-62
2023/12/13 05:07:00;;;;;;;4.82;1.50;;;384.40;2329.60;;;;;;5059204;28;20033;-62
2023/12/13 05:09:25;;;;;;;4.70;3.80;;;384.30;2329.60;;;;;;5085378;28;20020;-63
2023/12/13 05:11:51;;;;;;;9.77;6.00;;;384.20;2329.60;;;;;;5082155;28;20020;-63
2023/12/13 05:14:17;;;;;;;8.52;5.07;;;384.20;2329.60;;;;;;5083715;28;20016;-63
2023/12/13 05:16:43;;;;;;;10.90;6.97;;;384.20;2329.60;;;;;;5079162;28;20028;-63
2023/12/13 05:19:08;;;;;;;6.20;3.97;;;384.10;2329.60;;;;;;5077030;28;20028;-61
2023/12/13 05:21:34;;;;;;;11.82;7.22;;;384.20;2329.60;;;;;;5091088;28;20838;-63
2023/12/13 05:24:00;;;;;;;26.35;17.50;;;384.30;2329.60;;;;;;5088630;28;20024;-62
2023/12/13 05:26:26;;;;;;;13.35;9.02;;;384.20;2329.60;;;;;;5078597;28;20024;-64
2023/12/13 05:28:52;;;;;;;7.45;5.22;;;384.10;2329.60;;;;;;5088195;28;20027;-63
2023/12/13 05:31:21;;;;;;;7.20;5.18;;;384.10;2329.60;;;;;;5070166;28;20021;-63
2023/12/13 05:33:48;;;;;;;7.13;4.65;;;384.10;2329.60;;;;;;5069837;28;20497;-63
2023/12/13 05:36:14;;;;;;;4.63;3.38;;;384.10;2329.60;;;;;;5069530;28;20453;-63
2023/12/13 05:38:41;;;;;;;8.40;4.47;;;384.10;2329.60;;;;;;5056751;28;20099;-62
2023/12/13 05:41:07;;;;;;;4.00;2.60;;;384.10;2329.60;;;;;;5090419;28;20497;-63
2023/12/13 05:43:36;;;;;;;3.05;1.83;;;384.20;2329.60;;;;;;5086223;28;20024;-63
2023/12/13 05:46:06;;;;;;;3.20;1.80;;;384.30;2329.60;;;;;;5082381;28;20036;-62
2023/12/13 05:48:32;;;;;;;3.72;2.38;;;384.30;2329.60;;;;;;5078714;28;20024;-63
2023/12/13 05:50:58;;;;;;;3.13;2.13;;;384.30;2329.60;;;;;;5069616;28;20024;-63
2023/12/13 05:53:24;;;;;;;5.70;3.22;;;384.40;2329.60;;;;;;5085664;28;20046;-63
2023/12/13 05:55:50;;;;;;;4.35;3.42;;;384.40;2329.60;;;;;;5089230;28;20477;-64
2023/12/13 05:58:16;;;;;;;10.25;6.05;;;384.60;2329.60;;;;;;5089771;28;20103;-62
2023/12/13 06:00:42;;;;;;;4.43;2.83;;;384.60;2329.60;;;;;;5082720;28;20024;-62
2023/12/13 06:03:09;;;;;;;7.65;4.10;;;384.40;2329.60;;;;;;5074355;28;20079;-62
2023/12/13 06:05:35;;;;;;;6.15;2.90;;;384.40;2329.60;;;;;;5079148;28;20494;-63
2023/12/13 06:08:01;;;;;;;4.97;2.85;;;384.50;2329.60;;;;;;5083056;28;20391;-63
2023/12/13 06:10:27;;;;;;;8.20;2.63;;;384.50;2329.60;;;;;;5066402;28;20032;-63
2023/12/13 06:12:53;;;;;;;4.85;3.33;;;384.60;2329.60;;;;;;5066708;28;20427;-62
2023/12/13 06:15:21;;;;;;;5.78;2.70;;;384.60;2329.60;;;;;;5078386;28;20032;-63
2023/12/13 06:17:47;;;;;;;4.50;2.33;;;384.60;2329.60;;;;;;5069565;28;20024;-62
2023/12/13 06:20:13;;;;;;;5.57;2.63;;;384.60;2329.60;;;;;;5068345;28;20031;-61
2023/12/13 06:22:39;;;;;;;5.40;2.42;;;384.60;2329.60;;;;;;5068900;28;20025;-61
2023/12/13 06:25:05;;;;;;;4.53;2.88;;;384.70;2329.60;;;;;;5069444;28;20381;-61
2023/12/13 06:27:31;;;;;;;4.28;2.83;;;409.60;2355.20;;;;;;5073132;28;20020;-62
2023/12/13 06:29:57;;;;;;;11.00;8.27;;;384.60;2329.60;;;;;;5078540;28;20035;-62
2023/12/13 06:32:22;;;;;;;13.43;9.38;;;384.60;2329.60;;;;;;5069431;28;20356;-62
2023/12/13 06:34:48;;;;;;;51.33;30.45;;;384.40;2329.60;;;;;;5069309;28;20051;-62
2023/12/13 06:37:14;;;;;;;29.13;17.77;;;384.40;2329.60;;;;;;5086705;28;20024;-62
2023/12/13 06:39:40;;;;;;;17.40;12.82;;;358.60;2329.60;;;;;;5078551;28;20054;-62
2023/12/13 06:42:08;;;;;;;16.75;12.05;;;384.40;2329.60;;;;;;5076223;28;20502;-62
2023/12/13 06:44:39;;;;;;;17.63;10.15;;;384.40;2329.60;;;;;;5082546;28;20029;-62
2023/12/13 06:47:06;;;;;;;9.57;6.10;;;384.40;2329.60;;;;;;5056004;28;20044;-62
2023/12/13 06:49:33;;;;;;;14.20;6.93;;;384.40;2329.60;;;;;;5055459;28;20016;-62
2023/12/13 06:52:00;;;;;;;13.52;9.38;;;384.40;2329.60;;;;;;5081940;28;20096;-62
2023/12/13 06:54:26;;;;;;;12.35;7.68;;;384.50;2329.60;;;;;;5089170;28;20024;-63
2023/12/13 06:56:51;;;;;;;24.30;19.08;;;384.60;2329.60;;;;;;5076410;28;20028;-63
2023/12/13 06:59:17;;;;;;;23.00;19.20;;;384.70;2329.60;;;;;;5088368;28;20024;-63
2023/12/13 07:01:43;;;;;;;7.82;4.47;;;384.70;2329.60;;;;;;5089372;28;20032;-62
2023/12/13 07:04:09;;;;;;;11.60;6.93;;;384.70;2329.60;;;;;;5088690;28;20124;-63
2023/12/13 07:06:35;;;;;;;6.18;4.30;;;384.90;2329.60;;;;;;5076062;28;20025;-63
2023/12/13 07:09:02;;;;;;;5.25;3.10;;;384.90;2329.60;;;;;;5075182;28;20370;-62
2023/12/13 07:11:27;;;;;;;6.53;4.28;;;409.60;2355.20;;;;;;5076015;28;20025;-61
2023/12/13 07:13:53;;;;;;;20.25;13.80;;;409.70;2355.20;;;;;;5075355;28;20477;-62
2023/12/13 07:16:19;;;;;;;11.35;6.35;;;409.70;2355.20;;;;;;5089578;28;20024;-62
2023/12/13 07:18:45;;;;;;;8.90;5.32;;;409.70;2355.20;;;;;;5066726;28;20498;-63
2023/12/13 07:21:11;;;;;;;101.55;64.65;;;409.70;2355.20;;;;;;5062218;28;20021;-62
2023/12/13 07:23:36;;;;;;;143.45;87.18;;;409.70;2355.20;;;;;;5074997;28;20369;-63
2023/12/13 07:26:03;;;;;;;141.45;92.38;;;409.80;2355.20;;;;;;5075578;28;20032;-63
2023/12/13 07:28:29;;;;;;;75.82;52.92;;;409.90;2355.20;;;;;;5080342;28;20027;-63
2023/12/13 07:30:55;;;;;;;118.75;85.70;;;409.90;2355.20;;;;;;5076152;28;20052;-63
2023/12/13 07:33:21;;;;;;;111.75;84.63;;;409.90;2355.20;;;;;;5080235;28;20058;-62
2023/12/13 07:35:47;;;;;;;33.30;24.38;;;410.00;2355.20;;;;;;5077191;28;20119;-63
2023/12/13 07:38:14;;;;;;;64.82;49.00;;;410.00;2355.20;;;;;;5080585;28;20029;-61
2023/12/13 07:40:41;;;;;;;50.67;39.63;;;410.20;2355.20;;;;;;5077673;28;20032;-63
2023/12/13 07:43:06;;;;;;;80.60;63.25;;;410.10;2355.20;;;;;;5083748;28;20101;-60
2023/12/13 07:45:33;;;;;;;24.90;19.10;;;410.20;2355.20;;;;;;5077902;28;20763;-61
2023/12/13 07:47:58;;;;;;;25.67;18.52;;;410.20;2355.20;;;;;;5090155;28;20077;-63
2023/12/13 07:50:25;;;;;;;40.72;25.10;;;410.30;2355.20;;;;;;5068570;28;20040;-62
2023/12/13 07:52:50;;;;;;;35.17;27.33;;;410.40;2355.20;;;;;;5074451;28;20028;-62
2023/12/13 07:55:19;;;;;;;30.42;23.40;;;410.50;2355.20;;;;;;5078169;28;20467;-63
2023/12/13 07:57:45;;;;;;;22.58;17.60;;;410.30;2355.20;;;;;;5091312;28;20036;-63
2023/12/13 08:00:12;;;;;;;29.15;24.48;;;410.40;2355.20;;;;;;5081720;28;20027;-62
2023/12/13 08:02:37;;;;;;;24.63;19.90;;;410.30;2355.20;;;;;;5085717;28;20024;-62
2023/12/13 08:05:03;;;;;;;48.60;36.08;;;410.30;2355.20;;;;;;5082453;28;20031;-62
2023/12/13 08:07:30;;;;;;;36.60;31.70;;;410.40;2355.20;;;;;;5090974;28;20084;-62
2023/12/13 08:09:59;;;;;;;13.75;11.23;;;410.50;2355.20;;;;;;5089246;28;20476;-63
2023/12/13 08:12:25;;;;;;;20.13;16.48;;;410.40;2355.20;;;;;;5090275;28;20509;-61
2023/12/13 08:14:51;;;;;;;13.60;11.40;;;410.50;2355.20;;;;;;5085176;28;20033;-60
2023/12/13 08:17:23;;;;;;;13.63;10.93;;;410.40;2355.20;;;;;;5086567;28;20031;-59
2023/12/13 08:19:48;;;;;;;15.57;13.57;;;410.40;2355.20;;;;;;5084037;28;20032;-61
2023/12/13 08:22:14;;;;;;;22.98;16.80;;;410.40;2355.20;;;;;;5073940;28;20027;-60
2023/12/13 08:24:41;;;;;;;13.45;11.18;;;435.20;2355.20;;;;;;5078965;28;20409;-61
2023/12/13 08:27:07;;;;;;;20.90;15.63;;;410.50;2355.20;;;;;;5087367;28;20446;-62
2023/12/13 08:29:33;;;;;;;149.15;98.00;;;410.50;2355.20;;;;;;5084245;28;20048;-60
2023/12/13 08:31:59;;;;;;;80.82;57.50;;;435.20;2355.20;;;;;;5071965;28;20033;-61
2023/12/13 08:34:25;;;;;;;101.40;79.15;;;435.20;2355.20;;;;;;5075552;28;20033;-60
2023/12/13 08:36:51;;;;;;;65.22;44.03;;;435.30;2355.20;;;;;;5086202;28;20587;-58
2023/12/13 08:39:16;;;;;;;30.50;21.70;;;435.50;2355.20;;;;;;5087550;28;20028;-58
2023/12/13 08:41:42;;;;;;;15.70;9.38;;;435.60;2355.20;;;;;;5081469;28;20030;-56
2023/12/13 08:44:08;;;;;;;65.45;48.42;;;435.70;2355.20;;;;;;5072696;28;20026;-62
2023/12/13 08:46:34;;;;;;;80.22;59.17;;;435.80;2355.20;;;;;;5083409;28;20058;-57
2023/12/13 08:48:59;;;;;;;82.25;60.28;;;435.80;2355.20;;;;;;5075396;28;20049;-58
2023/12/13 08:51:26;;;;;;;124.10;98.10;;;435.70;2355.20;;;;;;5086325;28;20028;-58
2023/12/13 08:53:54;;;;;;;138.88;112.25;;;435.60;2355.20;;;;;;5089319;28;20437;-59
2023/12/13 08:56:20;;;;;;;98.93;76.57;;;435.60;2355.20;;;;;;5074958;28;20040;-59
2023/12/13 08:58:46;;;;;;;77.97;57.25;;;435.80;2355.20;;;;;;5065026;28;20033;-58
2023/12/13 09:01:13;;;;;;;76.45;56.72;;;435.80;2355.20;;;;;;5072986;28;20040;-57
2023/12/13 09:03:39;;;;;;;105.25;76.38;;;435.80;2355.20;;;;;;5080821;28;20068;-59
2023/12/13 09:06:06;;;;;;;21.92;15.30;;;435.80;2355.20;;;;;;5086642;28;20036;-59
2023/12/13 09:08:33;;;;;;;24.17;16.55;;;435.80;2355.20;;;;;;5087623;28;20111;-59
2023/12/13 09:10:59;;;;;;;151.45;113.07;;;436.10;2355.20;;;;;;5087017;28;20466;-62
2023/12/13 09:13:25;;;;;;;64.03;45.58;;;460.90;2380.80;;;;;;5076317;28;20028;-59
2023/12/13 09:15:51;;;;;;;34.92;27.70;;;461.00;2355.20;;;;;;5081250;28;20040;-59
2023/12/13 09:18:17;;;;;;;21.63;17.60;;;461.10;2304.00;;;;;;5070399;28;20367;-59
2023/12/13 09:20:43;;;;;;;15.80;11.85;;;461.20;2304.00;;;;;;5070159;28;20062;-58
2023/12/13 09:23:23;;;;;;;21.67;17.70;;;461.20;2278.40;;;;;;5084502;28;20024;-59
2023/12/13 09:25:49;;;;;;;28.98;26.13;;;461.20;2278.40;;;;;;5089121;28;20032;-59
2023/12/13 09:28:16;;;;;;;14.25;12.77;;;461.40;2252.80;;;;;;5088858;28;20016;-59
2023/12/13 09:30:42;;;;;;;15.77;14.20;;;461.40;2252.80;;;;;;5086860;28;20027;-60
2023/12/13 09:33:08;;;;;;;10.25;8.35;;;461.40;2252.80;;;;;;5088480;28;20470;-59
2023/12/13 09:35:33;;;;;;;13.30;10.35;;;461.40;2252.80;;;;;;5074730;28;20021;-59
2023/12/13 09:37:59;;;;;;;5.80;3.92;;;461.50;2227.20;;;;;;5083519;28;20474;-58
2023/12/13 09:40:25;;;;;;;8.88;8.02;;;461.50;2252.80;;;;;;5082300;28;20099;-59
2023/12/13 09:42:52;;;;;;;5.65;3.95;;;461.50;2227.20;;;;;;5088401;28;20071;-62
2023/12/13 09:45:22;;;;;;;6.78;3.55;;;461.50;2227.20;;;;;;5075015;28;20115;-59
2023/12/13 09:47:49;;;;;;;8.90;7.78;;;461.50;2227.20;;;;;;5089854;28;20466;-59
2023/12/13 09:50:16;;;;;;;4.78;3.35;;;461.50;2227.20;;;;;;5085255;28;20374;-58
2023/12/13 09:52:43;;;;;;;9.95;6.53;;;461.50;2227.20;;;;;;5069822;28;20360;-59
2023/12/13 09:55:10;;;;;;;5.30;2.30;;;461.50;2227.20;;;;;;5075228;28;20071;-58
2023/12/13 09:57:36;;;;;;;13.70;10.40;;;461.50;2227.20;;;;;;5069171;28;20460;-59
2023/12/13 10:00:02;;;;;;;7.47;6.78;;;461.50;2227.20;;;;;;5069472;28;20211;-62
2023/12/13 10:02:28;;;;;;;11.32;9.60;;;461.50;2227.20;;;;;;5071292;28;20062;-59
2023/12/13 10:04:57;;;;;;;11.27;10.18;;;461.50;2201.60;;;;;;5088904;28;20470;-59
2023/12/13 10:07:23;;;;;;;8.73;5.93;;;461.60;2227.20;;;;;;5076334;28;20487;-60
2023/12/13 10:09:49;;;;;;;10.57;9.00;;;461.60;2201.60;;;;;;5067831;28;20048;-58
2023/12/13 10:12:16;;;;;;;9.88;7.50;;;461.70;2201.60;;;;;;5085873;28;20038;-58
2023/12/13 10:14:43;;;;;;;9.98;9.07;;;486.40;2176.00;;;;;;5087610;28;20052;-59
2023/12/13 10:17:09;;;;;;;11.65;9.35;;;486.50;2176.00;;;;;;5080741;28;20470;-61
2023/12/13 10:19:35;;;;;;;4.63;4.15;;;486.50;2176.00;;;;;;5073694;28;20055;-58
2023/12/13 10:22:05;;;;;;;4.57;3.78;;;486.60;2176.00;;;;;;5077507;28;20115;-58
2023/12/13 10:24:31;;;;;;;11.90;9.57;;;486.60;2176.00;;;;;;5078521;28;20029;-60
2023/12/13 10:26:57;;;;;;;10.32;7.35;;;486.60;2150.40;;;;;;5085227;28;20032;-59
2023/12/13 10:29:23;;;;;;;5.93;4.60;;;486.70;2150.40;;;;;;5083171;28;20074;-61
2023/12/13 10:31:49;;;;;;;52.50;46.35;;;486.80;2150.40;;;;;;5069030;28;20078;-59
2023/12/13 10:34:16;;;;;;;8.43;6.43;;;486.70;2124.80;;;;;;5068914;28;20052;-59
2023/12/13 10:36:45;;;;;;;24.38;19.17;;;486.80;2150.40;;;;;;5069977;28;20479;-58
2023/12/13 10:39:16;;;;;;;11.07;10.02;;;486.80;2124.80;;;;;;5071550;28;20069;-59
2023/12/13 10:41:44;;;;;;;38.15;32.60;;;486.80;2124.80;;;;;;5074267;28;20040;-58
2023/12/13 10:44:16;;;;;;;24.52;19.00;;;486.80;2124.80;;;;;;5080810;28;20382;-62
2023/12/13 10:46:46;;;;;;;39.85;33.10;;;487.00;2099.20;;;;;;5083506;28;20472;-61
2023/12/13 10:49:19;;;;;;;15.93;11.98;;;487.00;2099.20;;;;;;5084178;28;20458;-61
2023/12/13 10:51:47;;;;;;;62.40;50.28;;;487.00;2124.80;;;;;;5082518;28;20111;-61
2023/12/13 10:54:14;;;;;;;17.83;12.55;;;487.10;2099.20;;;;;;5055539;28;20064;-62
2023/12/13 10:56:41;;;;;;;176.90;157.10;;;487.00;2073.60;;;;;;5068823;28;20605;-62
2023/12/13 10:59:09;;;;;;;24.05;17.88;;;487.10;2099.20;;;;;;5081885;28;20116;-62
2023/12/13 11:01:36;;;;;;;23.42;15.43;;;487.00;2099.20;;;;;;5082793;28;20039;-61
2023/12/13 11:04:12;;;;;;;12.05;10.25;;;487.10;2099.20;;;;;;5089036;28;20040;-61
2023/12/13 11:06:38;;;;;;;9.30;5.50;;;487.10;2073.60;;;;;;5090593;28;20054;-58
2023/12/13 11:09:18;;;;;;;15.95;14.25;;;487.10;2073.60;;;;;;5083632;28;20114;-63
2023/12/13 11:11:44;;;;;;;164.85;134.75;;;487.10;2073.60;;;;;;5072886;28;20043;-61
2023/12/13 11:14:16;;;;;;;83.47;67.47;;;487.10;2073.60;;;;;;5064775;28;20375;-62
2023/12/13 11:16:46;;;;;;;43.47;31.73;;;487.30;2073.60;;;;;;5066144;28;20040;-62
2023/12/13 11:19:15;;;;;;;106.90;53.65;;;487.20;2048.00;;;;;;5080914;28;20024;-61
2023/12/13 11:21:45;;;;;;;118.15;88.55;;;487.30;2073.60;;;;;;5085939;28;20031;-61
2023/12/13 11:24:16;;;;;;;64.47;45.92;;;487.30;2073.60;;;;;;5086102;28;20069;-62
2023/12/13 11:26:50;;;;;;;56.88;40.38;;;487.30;2073.60;;;;;;5085534;28;20071;-62
2023/12/13 11:29:20;;;;;;;46.47;33.05;;;487.30;2048.00;;;;;;5085623;28;20024;-62
2023/12/13 11:31:57;;;;;;;57.03;45.67;;;487.30;2048.00;;;;;;5072491;28;20028;-61
2023/12/13 11:34:33;;;;;;;31.25;20.73;;;487.30;2048.00;;;;;;5060023;28;20035;-63
2023/12/13 11:37:05;;;;;;;32.38;22.63;;;512.00;2048.00;;;;;;5074923;28;20020;-61
2023/12/13 11:39:32;;;;;;;51.60;33.90;;;487.30;2048.00;;;;;;5092685;28;20043;-63
2023/12/13 11:41:59;;;;;;;17.40;11.88;;;512.00;2048.00;;;;;;5070531;28;20037;-60
2023/12/13 11:44:32;;;;;;;45.60;25.23;;;512.00;2048.00;;;;;;5063568;28;20378;-60
2023/12/13 11:47:03;;;;;;;;;;;512.00;2048.00;;;;;;5079921;28;20483;-61
2023/12/13 11:49:29;;;;;;;22.30;13.75;;;487.30;2048.00;;;;;;5075277;28;19908;-61
2023/12/13 11:51:59;;;;;;;14.60;9.38;;;512.00;2048.00;;;;;;5077203;28;20473;-61
2023/12/13 11:54:25;;;;;;;6.70;4.28;;;487.30;2048.00;;;;;;5081274;28;20477;-61
2023/12/13 11:56:51;;;;;;;17.33;13.90;;;487.30;2048.00;;;;;;5076974;28;20032;-61
2023/12/13 11:59:20;;;;;;;5.80;4.00;;;487.30;2048.00;;;;;;5082356;28;20056;-60
2023/12/13 12:01:46;;;;;;;23.27;17.25;;;487.30;2022.40;;;;;;5076876;28;20107;-62
2023/12/13 12:04:13;;;;;;;19.42;12.57;;;487.30;2022.40;;;;;;5077664;28;20554;-61